createdAt,value
2022-11-13T00:04:20.555Z,101120.06
2022-11-13T00:09:40.820Z,101116.63
2022-11-13T00:15:02.128Z,101104.47
2022-11-13T00:20:22.086Z,101101.63
2022-11-13T00:25:42.422Z,101099.41
2022-11-13T00:31:04.742Z,101100.03
2022-11-13T00:36:27.317Z,101097.28
2022-11-13T00:41:47.509Z,101092.69
2022-11-13T00:47:07.703Z,101091.50
2022-11-13T00:52:27.903Z,101092.13
2022-11-13T00:57:48.126Z,101085.84
2022-11-13T01:03:09.123Z,101089.97
2022-11-13T01:08:29.327Z,101086.31
2022-11-13T01:13:51.456Z,101103.31
2022-11-13T01:19:11.639Z,101095.59
2022-11-13T01:24:32.118Z,101102.94
2022-11-13T01:29:52.605Z,101086.03
2022-11-13T01:35:12.825Z,101075.72
2022-11-13T01:40:33.093Z,101059.50
2022-11-13T01:45:59.499Z,101057.38
2022-11-13T01:51:31.570Z,101056.31
2022-11-13T01:56:52.542Z,101048.13
2022-11-13T02:02:12.701Z,101041.56
2022-11-13T02:07:33.154Z,101039.41
2022-11-13T02:12:53.516Z,101020.81
2022-11-13T02:18:16.619Z,101036.06
2022-11-13T02:24:00.367Z,101030.00
2022-11-13T02:29:20.472Z,101028.03
2022-11-13T02:34:40.808Z,101032.09
2022-11-13T02:40:01.063Z,101029.91
2022-11-13T02:45:21.626Z,101032.25
2022-11-13T02:50:42.054Z,101023.13
2022-11-13T02:56:02.055Z,101026.94
2022-11-13T03:01:22.515Z,101017.94
2022-11-13T03:06:42.797Z,101015.91
2022-11-13T03:12:03.116Z,101013.03
2022-11-13T03:17:23.353Z,101006.66
2022-11-13T03:22:43.648Z,100999.72
2022-11-13T03:28:03.992Z,100996.28
2022-11-13T03:33:24.894Z,101003.25
2022-11-13T03:38:45.365Z,100991.81
2022-11-13T03:44:05.744Z,100993.16
2022-11-13T03:49:25.951Z,100993.09
2022-11-13T03:54:46.165Z,100995.63
2022-11-13T04:00:07.024Z,100995.56
2022-11-13T04:05:27.636Z,100988.47
2022-11-13T04:10:47.543Z,100988.72
2022-11-13T04:16:07.936Z,100990.50
2022-11-13T04:21:28.576Z,100981.09
2022-11-13T04:26:48.580Z,100972.56
2022-11-13T04:32:08.946Z,100959.16
2022-11-13T04:37:29.349Z,100953.88
2022-11-13T04:42:49.550Z,100950.69
2022-11-13T04:48:09.799Z,100957.38
2022-11-13T04:53:29.979Z,100953.41
2022-11-13T04:58:50.345Z,100949.03
2022-11-13T05:04:15.041Z,100946.44
2022-11-13T05:09:35.316Z,100935.03
2022-11-13T05:14:55.560Z,100924.22
2022-11-13T05:20:16.375Z,100922.50
2022-11-13T05:25:36.381Z,100915.28
2022-11-13T05:31:08.877Z,100918.19
2022-11-13T05:36:28.814Z,100908.47
2022-11-13T05:41:49.135Z,100913.44
2022-11-13T05:47:09.386Z,100896.38
2022-11-13T05:52:29.767Z,100904.06
2022-11-13T05:57:50.018Z,100904.38
2022-11-13T06:03:10.455Z,100912.97
2022-11-13T06:08:31.232Z,100908.44
2022-11-13T06:13:53.370Z,100908.28
2022-11-13T06:19:13.675Z,100912.66
2022-11-13T06:24:33.958Z,100909.59
2022-11-13T06:29:54.140Z,100912.47
2022-11-13T06:35:14.404Z,100911.22
2022-11-13T06:40:34.647Z,100912.16
2022-11-13T06:45:55.783Z,100918.66
2022-11-13T06:51:20.203Z,100916.22
2022-11-13T06:56:45.420Z,100919.72
2022-11-13T07:02:05.971Z,100917.19
2022-11-13T07:07:26.027Z,100920.44
2022-11-13T07:12:50.634Z,100911.25
2022-11-13T07:18:13.608Z,100914.75
2022-11-13T07:23:37.029Z,100907.00
2022-11-13T07:28:57.424Z,100908.88
2022-11-13T07:34:17.820Z,100910.63
2022-11-13T07:39:38.069Z,100903.81
2022-11-13T07:44:58.471Z,100902.59
2022-11-13T07:50:18.727Z,100897.59
2022-11-13T07:55:38.934Z,100902.88
2022-11-13T08:01:04.728Z,100901.94
2022-11-13T08:06:27.664Z,100901.56
2022-11-13T08:11:47.912Z,100892.22
2022-11-13T08:17:07.847Z,100883.44
2022-11-13T08:22:30.155Z,100882.94
2022-11-13T08:27:53.001Z,100879.72
2022-11-13T08:33:13.264Z,100862.78
2022-11-13T08:38:33.438Z,100865.84
2022-11-13T08:43:53.716Z,100864.22
2022-11-13T08:49:13.992Z,100863.75
2022-11-13T08:54:34.155Z,100862.28
2022-11-13T08:59:54.414Z,100854.72
2022-11-13T09:05:14.688Z,100860.53
2022-11-13T09:10:35.037Z,100862.16
2022-11-13T09:15:58.352Z,100862.88
2022-11-13T09:21:18.775Z,100857.91
2022-11-13T09:26:38.924Z,100848.84
2022-11-13T09:31:59.142Z,100859.16
2022-11-13T09:37:19.438Z,100850.66
2022-11-13T09:42:41.240Z,100852.41
2022-11-13T09:48:21.550Z,100851.78
2022-11-13T09:53:41.853Z,100849.31
2022-11-13T09:59:04.806Z,100837.56
2022-11-13T10:04:40.356Z,100841.78
2022-11-13T10:10:44.849Z,100830.91
2022-11-13T10:16:27.949Z,100837.97
2022-11-13T10:22:19.709Z,100825.84
2022-11-13T10:27:39.874Z,100817.06
2022-11-13T10:33:08.684Z,100803.31
2022-11-13T10:38:39.040Z,100815.38
2022-11-13T10:44:02.839Z,100806.50
2022-11-13T10:49:29.141Z,100799.72
2022-11-13T10:54:50.329Z,100786.34
2022-11-13T11:00:21.534Z,100775.66
2022-11-13T11:05:52.523Z,100768.56
2022-11-13T11:11:36.115Z,100769.16
2022-11-13T11:16:57.464Z,100761.88
2022-11-13T11:22:22.401Z,100751.59
2022-11-13T11:28:04.898Z,100751.50
2022-11-13T11:33:36.699Z,100742.34
2022-11-13T11:39:42.442Z,100736.25
2022-11-13T11:45:30.219Z,100729.97
2022-11-13T11:51:12.541Z,100717.56
2022-11-13T11:56:37.169Z,100723.78
2022-11-13T12:02:06.251Z,100720.72
2022-11-13T12:07:47.232Z,100705.06
2022-11-13T12:13:31.608Z,100693.06
2022-11-13T12:19:24.212Z,100686.19
2022-11-13T12:25:08.030Z,100679.84
2022-11-13T12:30:42.543Z,100656.19
2022-11-13T12:36:03.728Z,100648.78
2022-11-13T12:41:45.284Z,100642.88
2022-11-13T12:47:08.725Z,100646.50
2022-11-13T12:52:28.682Z,100635.81
2022-11-13T12:57:48.953Z,100654.44
2022-11-13T13:03:12.233Z,100631.00
2022-11-13T13:08:45.127Z,100634.00
2022-11-13T13:14:21.772Z,100622.84
2022-11-13T13:19:42.321Z,100623.13
2022-11-13T13:25:22.321Z,100611.03
2022-11-13T13:30:56.988Z,100606.84
2022-11-13T13:36:29.464Z,100603.66
2022-11-13T13:42:19.192Z,100605.97
2022-11-13T13:47:45.343Z,100601.94
2022-11-13T13:53:05.814Z,100592.09
2022-11-13T13:58:44.952Z,100586.22
2022-11-13T14:04:17.324Z,100592.31
2022-11-13T14:09:37.401Z,100589.22
2022-11-13T14:14:57.790Z,100587.78
2022-11-13T14:20:19.217Z,100594.84
2022-11-13T14:25:39.844Z,100581.75
2022-11-13T14:31:06.976Z,100583.69
2022-11-13T14:36:32.883Z,100578.78
2022-11-13T14:41:58.940Z,100583.03
2022-11-13T14:47:28.738Z,100567.75
2022-11-13T14:53:07.357Z,100572.19
2022-11-13T14:58:35.141Z,100558.28
2022-11-13T15:03:55.466Z,100552.41
2022-11-13T15:09:17.665Z,100548.63
2022-11-13T15:14:41.408Z,100554.78
2022-11-13T15:20:05.433Z,100551.63
2022-11-13T15:25:29.445Z,100548.88
2022-11-13T15:30:49.732Z,100551.06
2022-11-13T15:36:10.113Z,100545.28
2022-11-13T15:41:30.870Z,100547.06
2022-11-13T15:46:51.226Z,100541.81
2022-11-13T15:52:11.577Z,100539.06
2022-11-13T15:57:31.788Z,100544.94
2022-11-13T16:02:56.824Z,100541.44
2022-11-13T16:08:17.124Z,100532.63
2022-11-13T16:13:37.409Z,100541.50
2022-11-13T16:19:00.353Z,100541.19
2022-11-13T16:24:24.203Z,100546.31
2022-11-13T16:29:44.985Z,100548.81
2022-11-13T16:35:05.572Z,100546.28
2022-11-13T16:40:26.817Z,100552.56
2022-11-13T16:45:46.707Z,100540.94
2022-11-13T16:51:06.938Z,100535.81
2022-11-13T16:56:30.242Z,100532.69
2022-11-13T17:01:55.132Z,100534.28
2022-11-13T17:07:16.186Z,100543.63
2022-11-13T17:12:36.536Z,100530.84
2022-11-13T17:17:58.603Z,100524.66
2022-11-13T17:23:18.968Z,100523.09
2022-11-13T17:28:39.578Z,100508.88
2022-11-13T17:33:59.711Z,100499.59
2022-11-13T17:39:20.529Z,100502.47
2022-11-13T17:44:40.958Z,100497.50
2022-11-13T17:50:06.742Z,100493.75
2022-11-13T17:55:27.587Z,100487.41
2022-11-13T18:00:48.326Z,100482.34
2022-11-13T18:06:13.242Z,100489.97
2022-11-13T18:11:34.179Z,100485.97
2022-11-13T18:16:54.076Z,100482.47
2022-11-13T18:22:15.185Z,100482.47
2022-11-13T18:27:36.383Z,100484.72
2022-11-13T18:32:56.679Z,100482.34
2022-11-13T18:38:16.788Z,100472.41
2022-11-13T18:43:38.165Z,100475.88
2022-11-13T18:48:59.327Z,100469.03
2022-11-13T18:54:19.706Z,100460.28
2022-11-13T18:59:39.991Z,100461.03
2022-11-13T19:05:00.302Z,100464.41
2022-11-13T19:10:22.250Z,100448.34
2022-11-13T19:15:42.305Z,100454.94
2022-11-13T19:21:12.711Z,100439.53
2022-11-13T19:26:32.967Z,100433.63
2022-11-13T19:31:54.841Z,100425.03
2022-11-13T19:37:19.112Z,100426.78
2022-11-13T19:42:41.954Z,100424.50
2022-11-13T19:48:02.074Z,100428.16
2022-11-13T19:53:22.398Z,100427.19
2022-11-13T19:58:44.484Z,100430.09
2022-11-13T20:04:05.681Z,100430.59
2022-11-13T20:09:25.546Z,100428.94
2022-11-13T20:14:45.800Z,100414.44
2022-11-13T20:20:06.496Z,100421.31
2022-11-13T20:25:28.501Z,100409.38
2022-11-13T20:30:49.292Z,100414.97
2022-11-13T20:36:10.034Z,100420.53
2022-11-13T20:41:30.508Z,100413.41
2022-11-13T20:46:50.732Z,100407.84
2022-11-13T20:52:12.197Z,100400.69
2022-11-13T20:57:36.733Z,100401.84
2022-11-13T21:03:00.202Z,100406.28
2022-11-13T21:08:20.557Z,100415.03
2022-11-13T21:13:40.877Z,100388.56
2022-11-13T21:19:01.293Z,100391.53
2022-11-13T21:24:21.533Z,100384.00
2022-11-13T21:29:41.840Z,100388.66
2022-11-13T21:35:02.071Z,100384.84
2022-11-13T21:40:22.590Z,100384.56
2022-11-13T21:45:42.534Z,100395.72
2022-11-13T21:51:02.789Z,100392.63
2022-11-13T21:56:24.491Z,100399.16
2022-11-13T22:01:44.647Z,100402.38
2022-11-13T22:07:04.732Z,100396.56
2022-11-13T22:12:25.023Z,100406.13
2022-11-13T22:17:45.360Z,100401.31
2022-11-13T22:23:05.975Z,100401.91
2022-11-13T22:28:26.011Z,100398.09
2022-11-13T22:33:48.939Z,100396.75
2022-11-13T22:39:11.717Z,100394.47
2022-11-13T22:44:51.575Z,100389.88
2022-11-13T22:50:12.317Z,100393.31
2022-11-13T22:55:32.639Z,100388.47
2022-11-13T23:00:53.340Z,100384.09
2022-11-13T23:06:16.244Z,100376.47
2022-11-13T23:11:41.213Z,100360.44
2022-11-13T23:17:01.270Z,100356.81
2022-11-13T23:22:21.560Z,100353.78
2022-11-13T23:27:41.897Z,100364.34
2022-11-13T23:33:02.055Z,100356.50
2022-11-13T23:38:22.541Z,100343.63
2022-11-13T23:49:23.102Z,100341.59
2022-11-13T23:54:43.492Z,100336.28
